Time;durP1;ratioP1;P1;durP2;ratioP2;P2;SDS_P1;SDS_P2;PMS_P1;PMS_P2;Temp;Humidity;BMP_temperature;BMP_pressure;BME280_temperature;BME280_humidity;BME280_pressure;Samples;Min_cycle;Max_cycle;Signal;HPM_P1;HPM_P2
2023/02/02 00:00:45;;;;;;;;;;;;;;;10.86;47.49;100451.13;6238124;23;19935;-84
2023/02/02 00:03:10;;;;;;;;;;;;;;;10.89;47.52;100447.94;6237574;23;20015;-84
2023/02/02 00:05:35;;;;;;;;;;;;;;;10.88;47.46;100440.94;6238304;22;19911;-84
2023/02/02 00:08:01;;;;;;;;;;;;;;;10.82;47.51;100441.97;6238543;23;20248;-86
2023/02/02 00:10:26;;;;;;;;;;;;;;;10.81;47.66;100432.34;6239161;23;19911;-84
2023/02/02 00:12:52;;;;;;;;;;;;;;;10.79;47.81;100427.22;6239306;23;20357;-84
2023/02/02 00:15:18;;;;;;;;;;;;;;;10.74;47.77;100434.41;6238815;22;19923;-84
2023/02/02 00:17:44;;;;;;;;;;;;;;;10.72;47.71;100423.94;6239953;23;19939;-84
2023/02/02 00:20:09;;;;;;;;;;;;;;;10.72;48.05;100415.91;6242575;23;19909;-84
2023/02/02 00:22:34;;;;;;;;;;;;;;;10.76;47.73;100416.19;6240111;23;19907;-83
2023/02/02 00:25:00;;;;;;;;;;;;;;;10.67;48.08;100390.97;6238876;22;19919;-85
2023/02/02 00:27:25;;;;;;;;;;;;;;;10.69;47.95;100400.34;6237189;23;19907;-85
2023/02/02 00:29:52;;;;;;;;;;;;;;;10.74;48.08;100396.88;6239999;23;19934;-85
2023/02/02 00:32:18;;;;;;;;;;;;;;;10.70;48.07;100382.41;6239528;23;20103;-84
2023/02/02 00:34:43;;;;;;;;;;;;;;;10.66;48.07;100378.63;6239255;22;19912;-83
2023/02/02 00:37:09;;;;;;;;;;;;;;;10.58;48.32;100378.03;6239541;23;19931;-84
2023/02/02 00:39:34;;;;;;;;;;;;;;;10.60;48.44;100380.47;6239369;23;19951;-85
2023/02/02 00:41:59;;;;;;;;;;;;;;;10.69;48.28;100375.44;6238861;23;19918;-84
2023/02/02 00:47:09;;;;;;;;;;;;;;;10.55;48.76;100378.53;6237946;23;20003;-84
2023/02/02 00:49:34;;;;;;;;;;;;;;;10.64;48.36;100368.16;6237542;23;19939;-84
2023/02/02 00:51:59;;;;;;;;;;;;;;;10.68;48.56;100371.13;6238901;23;19912;-86
2023/02/02 00:54:25;;;;;;;;;;;;;;;10.72;48.19;100365.00;6237206;23;19915;-84
2023/02/02 00:56:50;;;;;;;;;;;;;;;10.68;48.77;100368.47;6240790;22;20139;-84
2023/02/02 00:59:16;;;;;;;;;;;;;;;10.76;48.67;100373.31;6237318;23;20282;-84
2023/02/02 01:01:41;;;;;;;;;;;;;;;10.74;48.80;100367.41;6240351;23;19915;-85
2023/02/02 01:04:07;;;;;;;;;;;;;;;10.81;48.89;100365.34;6240179;23;19908;-84
2023/02/02 01:06:32;;;;;;;;;;;;;;;10.85;48.66;100369.09;6240049;22;19998;-85
2023/02/02 01:08:57;;;;;;;;;;;;;;;10.83;48.94;100361.31;6239790;23;20231;-83
2023/02/02 01:11:24;;;;;;;;;;;;;;;10.87;48.76;100354.38;6240356;23;19908;-85
2023/02/02 01:13:50;;;;;;;;;;;;;;;10.85;48.71;100364.56;6239326;23;19935;-84
2023/02/02 01:16:15;;;;;;;;;;;;;;;10.89;48.88;100348.75;6240339;22;19911;-84
2023/02/02 01:18:40;;;;;;;;;;;;;;;10.92;48.93;100364.31;6242173;23;19916;-85
2023/02/02 01:21:07;;;;;;;;;;;;;;;10.85;48.82;100361.06;6242096;23;20363;-83
2023/02/02 01:23:33;;;;;;;;;;;;;;;10.89;48.96;100367.50;6240621;23;19911;-84
2023/02/02 01:26:00;;;;;;;;;;;;;;;10.83;49.45;100364.00;6239832;22;19916;-86
2023/02/02 01:28:26;;;;;;;;;;;;;;;10.91;49.17;100362.69;6241721;23;19943;-84
2023/02/02 01:30:51;;;;;;;;;;;;;;;10.93;48.94;100357.06;6241886;23;19915;-85
2023/02/02 01:33:17;;;;;;;;;;;;;;;10.95;49.07;100363.81;6241534;23;19923;-84
2023/02/02 01:35:52;;;;;;;;;;;;;;;10.90;48.97;100369.13;6214566;23;19916;-85
2023/02/02 01:38:18;;;;;;;;;;;;;;;10.89;49.31;100372.88;6242701;23;19943;-84
2023/02/02 01:40:49;;;;;;;;;;;;;;;10.86;49.51;100384.94;6242096;23;19908;-83
2023/02/02 01:43:23;;;;;;;;;;;;;;;10.86;49.53;100400.19;6244837;23;19967;-84
2023/02/02 01:45:49;;;;;;;;;;;;;;;10.84;49.75;100392.41;6218993;23;19912;-83
2023/02/02 01:48:16;;;;;;;;;;;;;;;10.79;50.33;100405.00;6242305;23;20370;-84
2023/02/02 01:50:41;;;;;;;;;;;;;;;10.83;50.20;100412.25;6242241;23;20247;-84
2023/02/02 01:53:07;;;;;;;;;;;;;;;10.86;50.27;100414.41;6243591;23;19911;-84
2023/02/02 01:55:34;;;;;;;;;;;;;;;10.87;50.25;100433.97;6240927;22;19912;-84
2023/02/02 01:58:09;;;;;;;;;;;;;;;10.89;50.23;100435.31;6243452;23;19911;-84
2023/02/02 02:00:35;;;;;;;;;;;;;;;10.88;50.33;100435.59;6241578;23;19911;-85
2023/02/02 02:03:04;;;;;;;;;;;;;;;10.88;50.34;100436.41;6240397;23;19959;-84
2023/02/02 02:05:31;;;;;;;;;;;;;;;10.88;50.17;100454.34;6243408;22;19986;-83
2023/02/02 02:08:02;;;;;;;;;;;;;;;10.87;50.56;100450.06;6244897;23;20339;-83
2023/02/02 02:10:28;;;;;;;;;;;;;;;10.90;50.49;100444.97;6244146;23;19924;-84
2023/02/02 02:12:53;;;;;;;;;;;;;;;11.00;50.49;100444.25;6242625;23;20286;-83
2023/02/02 02:18:11;;;;;;;;;;;;;;;10.91;50.48;100443.09;6239400;23;20280;-83
2023/02/02 02:26:35;;;;;;;;;;;;;;;10.59;51.76;100481.47;6242158;22;19975;-84
2023/02/02 02:29:16;;;;;;;;;;;;;;;10.69;51.58;100494.13;6244214;23;19959;-84
2023/02/02 02:31:41;;;;;;;;;;;;;;;10.71;51.35;100496.56;6253417;23;19908;-84
2023/02/02 02:34:39;;;;;;;;;;;;;;;10.69;51.36;100486.09;6246484;23;20280;-85
2023/02/02 02:37:04;;;;;;;;;;;;;;;10.75;51.28;100497.66;6175572;23;19955;-83
2023/02/02 02:39:39;;;;;;;;;;;;;;;10.68;51.47;100510.47;6245125;23;19911;-83
2023/02/02 02:42:15;;;;;;;;;;;;;;;10.68;51.68;100510.47;6240178;23;19930;-83
2023/02/02 02:44:42;;;;;;;;;;;;;;;10.69;51.61;100512.06;6242262;22;19929;-84
2023/02/02 02:47:08;;;;;;;;;;;;;;;10.66;51.54;100523.31;6241585;23;19907;-84
2023/02/02 02:49:40;;;;;;;;;;;;;;;10.74;51.25;100522.84;6242661;23;20616;-83
2023/02/02 02:52:06;;;;;;;;;;;;;;;10.75;51.49;100521.78;6240218;23;19907;-82
2023/02/02 02:54:34;;;;;;;;;;;;;;;10.82;51.17;100546.50;6240479;22;20336;-83
2023/02/02 02:57:18;;;;;;;;;;;;;;;10.79;51.21;100538.97;6242706;23;20341;-83
2023/02/02 02:59:44;;;;;;;;;;;;;;;10.75;50.67;100530.63;6241423;23;19914;-84
2023/02/02 03:02:23;;;;;;;;;;;;;;;10.81;50.65;100555.59;6242159;23;19983;-82
2023/02/02 03:05:04;;;;;;;;;;;;;;;10.64;50.69;100555.72;6241220;22;19916;-85
2023/02/02 03:07:37;;;;;;;;;;;;;;;10.68;50.37;100564.84;6240737;23;19919;-83
2023/02/02 03:10:05;;;;;;;;;;;;;;;10.55;49.98;100568.75;6240295;23;19907;-83
2023/02/02 03:12:30;;;;;;;;;;;;;;;10.65;50.25;100577.97;6239681;23;19950;-85
2023/02/02 03:14:56;;;;;;;;;;;;;;;10.52;49.91;100582.63;6240020;22;19911;-83
2023/02/02 03:17:21;;;;;;;;;;;;;;;10.56;50.01;100586.44;6239251;23;19927;-84
2023/02/02 03:19:47;;;;;;;;;;;;;;;10.53;49.84;100578.09;6239534;23;19919;-83
2023/02/02 03:22:12;;;;;;;;;;;;;;;10.57;49.53;100600.63;6238874;23;19961;-86
2023/02/02 03:24:37;;;;;;;;;;;;;;;10.47;48.96;100606.69;6238870;22;19922;-83
2023/02/02 03:27:03;;;;;;;;;;;;;;;10.64;49.52;100600.47;6238914;23;19930;-84
2023/02/02 03:29:28;;;;;;;;;;;;;;;10.65;49.08;100613.59;6238328;23;19915;-84
2023/02/02 03:31:54;;;;;;;;;;;;;;;10.70;48.93;100620.88;6212815;23;19907;-84
2023/02/02 03:34:19;;;;;;;;;;;;;;;10.66;49.12;100643.88;6239165;23;19965;-83
2023/02/02 03:36:44;;;;;;;;;;;;;;;10.65;49.18;100655.66;6239710;22;19911;-84
2023/02/02 03:39:10;;;;;;;;;;;;;;;10.59;49.15;100660.13;6237176;23;20252;-84
2023/02/02 03:41:35;;;;;;;;;;;;;;;10.58;49.32;100677.25;6239773;23;19908;-83
2023/02/02 03:44:00;;;;;;;;;;;;;;;10.66;49.36;100678.72;6238116;23;19990;-84
2023/02/02 03:46:26;;;;;;;;;;;;;;;10.63;49.37;100689.94;6238538;22;19908;-85
2023/02/02 03:48:51;;;;;;;;;;;;;;;10.72;49.32;100696.47;6237755;23;20204;-85
2023/02/02 03:51:17;;;;;;;;;;;;;;;10.70;48.91;100701.25;6238578;23;20302;-83
2023/02/02 03:53:48;;;;;;;;;;;;;;;10.71;49.06;100706.38;6239481;23;19907;-84
2023/02/02 03:56:14;;;;;;;;;;;;;;;10.75;48.92;100709.34;6239205;22;20004;-84
2023/02/02 03:58:40;;;;;;;;;;;;;;;10.69;48.49;100711.16;6237046;23;19915;-82
2023/02/02 04:01:06;;;;;;;;;;;;;;;10.71;48.05;100705.56;6238501;23;19908;-83
2023/02/02 04:03:32;;;;;;;;;;;;;;;10.62;47.19;100725.81;6239353;23;20334;-84
2023/02/02 04:05:57;;;;;;;;;;;;;;;10.55;47.56;100732.16;6239864;22;19907;-83
2023/02/02 04:08:23;;;;;;;;;;;;;;;10.50;47.77;100745.50;6239026;23;19907;-85
2023/02/02 04:10:48;;;;;;;;;;;;;;;10.48;47.64;100731.53;6238765;23;20245;-83
2023/02/02 04:13:13;;;;;;;;;;;;;;;10.45;47.21;100737.41;6238809;23;19951;-83
2023/02/02 04:15:39;;;;;;;;;;;;;;;10.38;47.48;100760.03;6238965;22;19916;-83
2023/02/02 04:18:05;;;;;;;;;;;;;;;10.38;47.02;100774.25;6238620;23;19908;-83
2023/02/02 04:20:30;;;;;;;;;;;;;;;10.47;47.39;100777.31;6237458;23;19911;-85
2023/02/02 04:22:55;;;;;;;;;;;;;;;10.48;47.53;100779.75;6238468;23;19907;-86
2023/02/02 04:25:21;;;;;;;;;;;;;;;10.48;47.29;100798.50;6239429;22;19907;-85
2023/02/02 04:27:46;;;;;;;;;;;;;;;10.32;46.75;100787.81;6239109;23;19907;-85
2023/02/02 04:30:11;;;;;;;;;;;;;;;10.43;47.52;100809.16;6237622;23;20255;-83
2023/02/02 04:32:37;;;;;;;;;;;;;;;10.40;47.22;100809.63;6210051;23;20228;-83
2023/02/02 04:35:02;;;;;;;;;;;;;;;10.35;47.47;100812.22;6237249;22;19911;-85
2023/02/02 04:37:29;;;;;;;;;;;;;;;10.32;47.59;100814.59;6237812;23;20299;-85
2023/02/02 04:39:54;;;;;;;;;;;;;;;10.34;47.45;100805.25;6238121;23;19918;-84
2023/02/02 04:42:20;;;;;;;;;;;;;;;10.15;46.83;100811.88;6237030;23;19931;-86
2023/02/02 04:44:45;;;;;;;;;;;;;;;10.12;47.57;100809.69;6239019;22;19995;-84
2023/02/02 04:47:11;;;;;;;;;;;;;;;10.12;47.29;100825.75;6238263;23;19912;-85
2023/02/02 04:49:36;;;;;;;;;;;;;;;10.14;46.85;100823.66;6239321;23;19915;-84
2023/02/02 04:52:02;;;;;;;;;;;;;;;10.18;47.06;100840.84;6237468;23;20220;-84
2023/02/02 04:54:27;;;;;;;;;;;;;;;10.07;46.84;100853.28;6238506;23;20456;-85
2023/02/02 04:56:52;;;;;;;;;;;;;;;10.03;47.14;100851.28;6236018;22;19916;-83
2023/02/02 04:59:18;;;;;;;;;;;;;;;10.03;46.85;100851.28;6238720;23;19911;-84
2023/02/02 05:01:43;;;;;;;;;;;;;;;10.02;46.61;100874.56;6238115;23;19914;-83
2023/02/02 05:04:09;;;;;;;;;;;;;;;10.07;47.12;100888.06;6237880;23;19911;-85
2023/02/02 05:06:35;;;;;;;;;;;;;;;9.97;46.05;100894.03;6238798;22;19994;-84
2023/02/02 05:09:00;;;;;;;;;;;;;;;9.96;46.88;100895.09;6212002;23;19939;-85
2023/02/02 05:11:26;;;;;;;;;;;;;;;9.98;47.03;100895.66;6209749;23;20247;-83
2023/02/02 05:13:52;;;;;;;;;;;;;;;9.91;46.45;100903.03;6237357;23;20343;-85
2023/02/02 05:16:18;;;;;;;;;;;;;;;10.05;47.14;100918.78;6237577;22;19923;-83
2023/02/02 05:18:54;;;;;;;;;;;;;;;10.13;46.78;100931.81;6210992;23;19911;-84
2023/02/02 05:21:19;;;;;;;;;;;;;;;10.09;46.50;100923.44;6236859;23;19908;-84
2023/02/02 05:23:45;;;;;;;;;;;;;;;10.08;47.03;100935.22;6236151;23;19908;-84
2023/02/02 05:26:15;;;;;;;;;;;;;;;10.03;46.79;100936.97;6237814;22;19911;-85
2023/02/02 05:28:41;;;;;;;;;;;;;;;10.11;47.09;100939.25;6237354;23;20347;-84
2023/02/02 05:31:07;;;;;;;;;;;;;;;10.13;47.09;100937.97;6238300;23;20006;-85
2023/02/02 05:33:32;;;;;;;;;;;;;;;10.15;47.01;100941.22;6238188;23;19946;-85
2023/02/02 05:35:58;;;;;;;;;;;;;;;10.17;46.93;100951.69;6236404;22;19947;-84
2023/02/02 05:38:23;;;;;;;;;;;;;;;10.10;46.36;100962.56;6236531;23;19907;-86
2023/02/02 05:40:49;;;;;;;;;;;;;;;10.17;46.68;100957.84;6237720;23;20414;-84
2023/02/02 05:43:14;;;;;;;;;;;;;;;10.20;46.31;100981.47;6238075;23;20393;-84
2023/02/02 05:45:39;;;;;;;;;;;;;;;10.17;45.83;100981.94;6237755;22;19911;-84
2023/02/02 05:48:05;;;;;;;;;;;;;;;10.19;45.91;100984.38;6235966;23;19912;-84
2023/02/02 05:50:30;;;;;;;;;;;;;;;10.13;45.94;100990.69;6212420;23;20011;-84
2023/02/02 05:52:56;;;;;;;;;;;;;;;9.99;45.87;100996.31;6239005;23;19964;-85
2023/02/02 05:55:22;;;;;;;;;;;;;;;10.00;45.79;101013.19;6239200;22;19958;-83
2023/02/02 05:57:47;;;;;;;;;;;;;;;10.02;46.15;101005.75;6237459;23;19915;-85
2023/02/02 06:00:13;;;;;;;;;;;;;;;10.03;45.94;101018.06;6239232;23;19918;-84
2023/02/02 06:02:38;;;;;;;;;;;;;;;9.91;45.22;101025.34;6239034;23;19990;-85
2023/02/02 06:05:03;;;;;;;;;;;;;;;9.98;46.04;101016.13;6239064;22;20323;-84
2023/02/02 06:07:29;;;;;;;;;;;;;;;9.98;45.86;101037.53;6238110;23;19915;-84
2023/02/02 06:09:54;;;;;;;;;;;;;;;9.97;45.88;101035.09;6237777;23;20264;-84
2023/02/02 06:12:20;;;;;;;;;;;;;;;10.03;45.81;101044.03;6239107;23;19912;-84
2023/02/02 06:14:45;;;;;;;;;;;;;;;10.03;45.53;101049.38;6238859;22;20402;-84
2023/02/02 06:17:10;;;;;;;;;;;;;;;9.96;45.20;101054.88;6238731;23;19919;-84
2023/02/02 06:19:36;;;;;;;;;;;;;;;10.00;45.54;101061.38;6239866;23;19986;-85
2023/02/02 06:22:01;;;;;;;;;;;;;;;10.02;45.61;101074.53;6239374;23;19939;-84
2023/02/02 06:24:27;;;;;;;;;;;;;;;9.99;45.15;101073.97;6238795;23;19915;-85
2023/02/02 06:26:52;;;;;;;;;;;;;;;10.00;45.19;101086.28;6239205;22;19915;-83
2023/02/02 06:29:17;;;;;;;;;;;;;;;9.94;45.34;101081.06;6238244;23;19911;-84
2023/02/02 06:31:43;;;;;;;;;;;;;;;9.96;45.14;101089.69;6238997;23;20328;-83
2023/02/02 06:34:09;;;;;;;;;;;;;;;9.98;45.43;101091.06;6239118;23;19923;-84
2023/02/02 06:36:35;;;;;;;;;;;;;;;10.00;45.66;101097.00;6239094;22;19990;-85
2023/02/02 06:39:03;;;;;;;;;;;;;;;9.98;45.58;101101.78;6239049;23;19961;-84
2023/02/02 06:41:29;;;;;;;;;;;;;;;9.99;45.18;101103.41;6239921;23;19911;-84
2023/02/02 06:43:54;;;;;;;;;;;;;;;9.91;45.18;101111.81;6240201;23;19907;-84
2023/02/02 06:46:19;;;;;;;;;;;;;;;9.89;44.49;101103.19;6213784;23;19986;-85
2023/02/02 06:48:45;;;;;;;;;;;;;;;9.93;45.46;101116.94;6238397;23;19907;-84
2023/02/02 06:51:10;;;;;;;;;;;;;;;9.85;45.23;101123.44;6239748;23;19950;-83
2023/02/02 06:53:35;;;;;;;;;;;;;;;9.82;45.43;101133.78;6239717;23;19912;-84
2023/02/02 06:56:02;;;;;;;;;;;;;;;9.89;45.61;101139.84;6239972;22;20347;-84
2023/02/02 06:58:28;;;;;;;;;;;;;;;9.94;45.39;101139.97;6239642;23;19911;-84
2023/02/02 07:00:53;;;;;;;;;;;;;;;9.78;45.37;101143.34;6238997;23;20357;-85
2023/02/02 07:03:20;;;;;;;;;;;;;;;9.82;45.56;101152.53;6239604;23;19986;-83
2023/02/02 07:05:45;;;;;;;;;;;;;;;9.76;45.02;101156.97;6239384;22;20143;-85
2023/02/02 07:08:11;;;;;;;;;;;;;;;9.80;45.15;101155.44;6238718;23;19923;-86
2023/02/02 07:10:37;;;;;;;;;;;;;;;9.78;45.62;101162.88;6240000;23;19921;-85
2023/02/02 07:13:02;;;;;;;;;;;;;;;9.71;45.52;101159.53;6238282;23;20347;-85
2023/02/02 07:15:28;;;;;;;;;;;;;;;9.66;45.53;101167.41;6239190;22;19930;-84
2023/02/02 07:17:53;;;;;;;;;;;;;;;9.66;45.79;101181.59;6238979;23;19903;-85
2023/02/02 07:20:19;;;;;;;;;;;;;;;9.73;45.99;101184.19;6239537;23;20358;-84
2023/02/02 07:22:44;;;;;;;;;;;;;;;9.75;45.77;101192.78;6239403;23;19908;-84
2023/02/02 07:25:09;;;;;;;;;;;;;;;9.73;45.49;101184.19;6239161;22;19946;-84
2023/02/02 07:27:35;;;;;;;;;;;;;;;9.67;45.64;101190.44;6238845;23;19912;-84
2023/02/02 07:30:00;;;;;;;;;;;;;;;9.62;46.03;101198.34;6239786;23;19935;-84
2023/02/02 07:32:25;;;;;;;;;;;;;;;9.67;45.79;101201.97;6239695;23;19978;-84
2023/02/02 07:34:51;;;;;;;;;;;;;;;9.69;45.85;101207.91;6239266;22;20336;-84
2023/02/02 07:37:16;;;;;;;;;;;;;;;9.72;45.84;101211.19;6239162;23;20298;-85
2023/02/02 07:39:44;;;;;;;;;;;;;;;9.72;45.48;101220.03;6239631;23;20258;-86
2023/02/02 07:42:10;;;;;;;;;;;;;;;9.70;45.68;101224.78;6239600;23;20324;-84
2023/02/02 07:44:36;;;;;;;;;;;;;;;9.72;45.56;101230.72;6239021;22;20386;-85
2023/02/02 07:47:01;;;;;;;;;;;;;;;9.70;45.53;101227.47;6239106;23;19911;-84
2023/02/02 07:49:27;;;;;;;;;;;;;;;9.69;45.48;101242.69;6210240;23;19907;-83
2023/02/02 07:51:52;;;;;;;;;;;;;;;9.68;45.58;101230.34;6238975;23;20316;-84
2023/02/02 07:54:17;;;;;;;;;;;;;;;9.48;45.96;101247.75;6238201;23;19939;-84
2023/02/02 07:56:43;;;;;;;;;;;;;;;9.52;46.11;101248.94;6238855;22;19978;-85
2023/02/02 07:59:09;;;;;;;;;;;;;;;9.54;46.38;101252.19;6238753;23;19916;-85
2023/02/02 08:01:34;;;;;;;;;;;;;;;9.61;46.33;101244.88;6238796;23;20295;-84
2023/02/02 08:04:00;;;;;;;;;;;;;;;9.63;46.14;101262.31;6238736;23;19912;-84
2023/02/02 08:06:25;;;;;;;;;;;;;;;9.67;46.15;101260.81;6238513;22;20379;-85
2023/02/02 08:08:50;;;;;;;;;;;;;;;9.68;46.55;101266.97;6238117;23;19961;-84
2023/02/02 08:11:18;;;;;;;;;;;;;;;9.67;46.42;101276.88;6239545;23;19919;-84
2023/02/02 08:13:43;;;;;;;;;;;;;;;9.70;46.03;101264.94;6238190;23;19984;-84
2023/02/02 08:16:09;;;;;;;;;;;;;;;9.74;46.13;101281.31;6238686;22;19928;-85
2023/02/02 08:18:35;;;;;;;;;;;;;;;9.77;46.48;101296.91;6238534;23;19920;-85
2023/02/02 08:21:01;;;;;;;;;;;;;;;9.82;46.25;101283.66;6238931;23;19911;-84
2023/02/02 08:23:27;;;;;;;;;;;;;;;9.72;46.71;101296.81;6238654;23;19908;-84
2023/02/02 08:25:53;;;;;;;;;;;;;;;9.86;46.47;101288.31;6238917;22;20335;-85
2023/02/02 08:28:18;;;;;;;;;;;;;;;10.06;46.28;101289.88;6237955;23;20309;-85
2023/02/02 08:30:44;;;;;;;;;;;;;;;10.06;46.39;101296.06;6239371;23;19915;-84
2023/02/02 08:33:10;;;;;;;;;;;;;;;10.13;46.52;101295.94;6211843;23;20284;-84
2023/02/02 08:35:39;;;;;;;;;;;;;;;10.17;46.17;101302.44;6238922;22;20215;-84
2023/02/02 08:38:06;;;;;;;;;;;;;;;10.14;45.86;101313.63;6238023;23;19919;-84
2023/02/02 08:40:31;;;;;;;;;;;;;;;10.14;46.29;101319.00;6238794;23;19916;-84
2023/02/02 08:42:57;;;;;;;;;;;;;;;10.14;46.25;101317.13;6238396;23;20331;-85
2023/02/02 08:45:22;;;;;;;;;;;;;;;10.15;45.90;101316.06;6238840;22;19982;-85
2023/02/02 08:47:47;;;;;;;;;;;;;;;10.20;45.90;101323.41;6237719;23;20452;-84
2023/02/02 08:50:13;;;;;;;;;;;;;;;10.17;46.08;101322.00;6239021;23;19912;-85
2023/02/02 08:52:38;;;;;;;;;;;;;;;10.23;45.75;101328.31;6240128;23;20002;-85
2023/02/02 08:55:04;;;;;;;;;;;;;;;10.27;45.63;101327.66;6237804;22;20139;-85
2023/02/02 08:57:31;;;;;;;;;;;;;;;10.28;45.89;101336.50;6211294;23;20123;-85
2023/02/02 08:59:57;;;;;;;;;;;;;;;10.32;45.71;101334.19;6238449;23;19915;-84
2023/02/02 09:02:22;;;;;;;;;;;;;;;10.37;45.89;101336.97;6238400;23;20131;-84
2023/02/02 09:04:47;;;;;;;;;;;;;;;10.44;45.69;101343.84;6238682;22;19916;-84
2023/02/02 09:07:13;;;;;;;;;;;;;;;10.51;45.53;101339.19;6238408;23;19938;-84
2023/02/02 09:09:38;;;;;;;;;;;;;;;10.48;44.71;101350.38;6239915;23;20271;-84
2023/02/02 09:12:04;;;;;;;;;;;;;;;10.46;45.03;101349.78;6237939;23;19994;-84
2023/02/02 09:14:29;;;;;;;;;;;;;;;10.46;45.49;101357.84;6238440;22;19907;-84
2023/02/02 09:16:54;;;;;;;;;;;;;;;10.46;45.15;101357.00;6239024;23;19924;-83
2023/02/02 09:19:20;;;;;;;;;;;;;;;10.48;45.03;101357.59;6238386;23;19908;-84
2023/02/02 09:21:48;;;;;;;;;;;;;;;10.49;45.40;101365.41;6238450;23;20147;-83
2023/02/02 09:24:13;;;;;;;;;;;;;;;10.55;45.23;101360.97;6239136;23;19939;-83
2023/02/02 09:26:39;;;;;;;;;;;;;;;10.62;45.26;101363.53;6240390;22;19916;-83
2023/02/02 09:29:05;;;;;;;;;;;;;;;10.67;45.10;101369.84;6240377;23;19942;-84
2023/02/02 09:31:35;;;;;;;;;;;;;;;10.61;44.50;101368.09;6241501;23;20177;-84
2023/02/02 09:34:01;;;;;;;;;;;;;;;10.69;45.03;101367.72;6240777;23;20446;-84
2023/02/02 09:36:26;;;;;;;;;;;;;;;10.74;44.61;101378.56;6240830;22;20374;-84
2023/02/02 09:38:52;;;;;;;;;;;;;;;10.68;44.84;101381.38;6240126;23;19915;-85
2023/02/02 09:41:29;;;;;;;;;;;;;;;10.67;44.54;101383.22;6239826;23;20377;-83
2023/02/02 09:44:13;;;;;;;;;;;;;;;10.79;45.40;101393.97;6240125;23;19935;-83
2023/02/02 09:46:48;;;;;;;;;;;;;;;10.96;44.80;101396.75;6213738;23;19916;-82
2023/02/02 09:49:16;;;;;;;;;;;;;;;11.03;44.82;101400.94;6238533;23;19993;-84
2023/02/02 09:51:47;;;;;;;;;;;;;;;11.12;44.71;101401.38;6240387;23;19990;-84
2023/02/02 09:54:26;;;;;;;;;;;;;;;11.16;44.87;101392.63;6239094;23;19916;-84
2023/02/02 09:56:54;;;;;;;;;;;;;;;11.18;44.53;101412.00;6239971;22;19919;-85
2023/02/02 09:59:26;;;;;;;;;;;;;;;11.01;44.32;101412.94;6212774;23;19938;-84
2023/02/02 10:01:55;;;;;;;;;;;;;;;11.07;44.77;101420.84;6240172;23;19970;-85
2023/02/02 10:04:20;;;;;;;;;;;;;;;11.08;44.72;101427.84;6239732;23;19918;-83
2023/02/02 10:06:50;;;;;;;;;;;;;;;11.12;44.89;101437.06;6240514;22;19907;-84
2023/02/02 10:09:18;;;;;;;;;;;;;;;11.11;45.09;101443.47;6239503;23;20388;-84
2023/02/02 10:11:56;;;;;;;;;;;;;;;11.08;44.77;101459.22;6239589;23;20300;-86
2023/02/02 10:14:27;;;;;;;;;;;;;;;10.95;44.87;101459.44;6239792;23;19957;-84
2023/02/02 10:16:54;;;;;;;;;;;;;;;10.79;45.29;101466.34;6239882;22;19995;-85
2023/02/02 10:19:26;;;;;;;;;;;;;;;10.72;45.01;101474.47;6239589;23;19911;-85
2023/02/02 10:22:14;;;;;;;;;;;;;;;10.69;45.11;101474.94;6240154;23;19987;-83
2023/02/02 10:24:39;;;;;;;;;;;;;;;10.66;45.34;101471.91;6240300;22;20327;-85
2023/02/02 10:27:09;;;;;;;;;;;;;;;10.64;45.04;101474.81;6240089;23;19918;-83
2023/02/02 10:29:47;;;;;;;;;;;;;;;10.57;45.02;101479.44;6240095;23;19951;-85
2023/02/02 10:32:21;;;;;;;;;;;;;;;10.62;44.44;101487.63;6239487;23;19912;-85
2023/02/02 10:34:50;;;;;;;;;;;;;;;10.62;44.20;101492.19;6240353;22;19908;-84
2023/02/02 10:37:15;;;;;;;;;;;;;;;10.69;44.98;101496.38;6240243;23;20678;-84
2023/02/02 10:39:51;;;;;;;;;;;;;;;10.82;44.87;101492.66;6213676;23;19915;-85
2023/02/02 10:42:17;;;;;;;;;;;;;;;11.02;43.79;101503.88;6240435;23;20255;-86
2023/02/02 10:44:47;;;;;;;;;;;;;;;11.26;44.15;101501.19;6239847;22;19942;-84
2023/02/02 10:47:19;;;;;;;;;;;;;;;11.34;43.45;101504.34;6239526;23;19907;-84
2023/02/02 10:49:44;;;;;;;;;;;;;;;11.46;43.60;101510.50;6239414;23;19914;-85
2023/02/02 10:52:10;;;;;;;;;;;;;;;11.56;43.92;101512.59;6239736;23;19990;-84
2023/02/02 10:54:38;;;;;;;;;;;;;;;11.65;43.72;101516.53;6238938;22;19912;-84
2023/02/02 10:57:05;;;;;;;;;;;;;;;11.67;41.72;101532.41;6237978;23;19987;-85
2023/02/02 10:59:32;;;;;;;;;;;;;;;11.58;42.73;101542.69;6238524;23;19908;-86
2023/02/02 11:01:58;;;;;;;;;;;;;;;11.50;42.69;101543.06;6239370;23;19907;-84
2023/02/02 11:07:08;;;;;;;;;;;;;;;11.22;43.11;101545.63;6241421;23;19921;-83
2023/02/02 11:09:37;;;;;;;;;;;;;;;11.15;42.38;101556.47;6241457;23;19919;-85
2023/02/02 11:12:15;;;;;;;;;;;;;;;11.08;42.28;101564.63;6241027;23;19982;-84
2023/02/02 11:15:09;;;;;;;;;;;;;;;11.00;42.28;101566.84;6241158;22;19907;-85
2023/02/02 11:17:34;;;;;;;;;;;;;;;10.92;42.84;101584.06;6239929;23;20399;-83
2023/02/02 11:20:00;;;;;;;;;;;;;;;10.82;42.50;101581.94;6241416;23;19934;-83
2023/02/02 11:22:32;;;;;;;;;;;;;;;10.63;40.99;101575.03;6240074;23;19959;-86
2023/02/02 11:25:04;;;;;;;;;;;;;;;10.64;41.82;101575.84;6241502;22;19923;-87
2023/02/02 11:27:40;;;;;;;;;;;;;;;10.72;42.17;101584.34;6241354;23;19912;-84
2023/02/02 11:30:10;;;;;;;;;;;;;;;10.81;42.86;101585.69;6240853;23;19918;-84
2023/02/02 11:32:36;;;;;;;;;;;;;;;10.90;42.11;101584.28;6241601;23;20247;-84
2023/02/02 11:35:02;;;;;;;;;;;;;;;11.03;42.22;101595.88;6241380;22;20259;-85
2023/02/02 11:37:27;;;;;;;;;;;;;;;11.01;42.01;101593.41;6240642;23;19951;-85
2023/02/02 11:39:54;;;;;;;;;;;;;;;11.14;42.35;101593.22;6240219;23;19947;-84
2023/02/02 11:42:21;;;;;;;;;;;;;;;11.33;41.40;101606.53;6241105;23;19937;-84
2023/02/02 11:44:49;;;;;;;;;;;;;;;11.45;40.54;101600.09;6240909;22;19935;-84
2023/02/02 11:47:17;;;;;;;;;;;;;;;11.57;41.29;101597.44;6240237;23;19916;-85
2023/02/02 11:49:43;;;;;;;;;;;;;;;11.80;41.46;101602.81;6241096;23;19953;-84
2023/02/02 11:52:15;;;;;;;;;;;;;;;12.06;40.65;101606.06;6240802;23;19978;-85
2023/02/02 11:54:44;;;;;;;;;;;;;;;12.06;39.80;101606.06;6238647;22;19915;-84
2023/02/02 11:57:15;;;;;;;;;;;;;;;12.07;40.56;101618.44;6240140;23;19985;-86
2023/02/02 11:59:41;;;;;;;;;;;;;;;11.99;40.86;101618.78;6240867;23;19918;-85
2023/02/02 12:02:21;;;;;;;;;;;;;;;12.06;40.28;101624.88;6240158;23;19908;-84
2023/02/02 12:04:48;;;;;;;;;;;;;;;12.31;41.13;101622.69;6239819;22;19908;-85
2023/02/02 12:07:17;;;;;;;;;;;;;;;12.59;40.80;101631.84;6240101;23;19911;-84
2023/02/02 12:09:42;;;;;;;;;;;;;;;12.67;41.12;101634.94;6239654;23;20411;-85
2023/02/02 12:12:13;;;;;;;;;;;;;;;12.82;41.58;101639.00;6240030;23;20131;-85
2023/02/02 12:14:45;;;;;;;;;;;;;;;12.86;41.29;101643.63;6239793;22;20401;-86
2023/02/02 12:17:27;;;;;;;;;;;;;;;12.76;39.84;101643.47;6239129;23;20351;-86
2023/02/02 12:19:52;;;;;;;;;;;;;;;12.53;40.78;101659.66;6239735;23;19964;-84
2023/02/02 12:22:27;;;;;;;;;;;;;;;12.35;41.07;101666.84;6240522;23;20241;-85
2023/02/02 12:24:55;;;;;;;;;;;;;;;12.21;41.06;101686.13;6238886;22;20335;-85
2023/02/02 12:27:39;;;;;;;;;;;;;;;12.09;41.16;101675.44;6239846;23;19914;-86
2023/02/02 12:30:23;;;;;;;;;;;;;;;11.96;41.84;101687.22;6239722;23;19912;-86
2023/02/02 12:33:07;;;;;;;;;;;;;;;11.90;42.07;101690.84;6239584;23;19911;-85
2023/02/02 12:35:41;;;;;;;;;;;;;;;11.80;42.02;101688.72;6239642;22;19911;-86
2023/02/02 12:38:19;;;;;;;;;;;;;;;11.70;42.06;101693.03;6238630;23;19915;-85
2023/02/02 12:41:11;;;;;;;;;;;;;;;11.64;42.15;101696.63;6239918;23;19915;-85
2023/02/02 12:43:36;;;;;;;;;;;;;;;11.67;42.33;101704.22;6233557;23;19918;-83
2023/02/02 12:46:05;;;;;;;;;;;;;;;11.71;41.87;101703.53;6239673;22;19963;-85
2023/02/02 12:48:49;;;;;;;;;;;;;;;11.71;42.28;101700.84;6238778;23;19914;-85
2023/02/02 12:51:20;;;;;;;;;;;;;;;11.73;41.70;101703.31;6240059;23;19935;-84
2023/02/02 12:54:04;;;;;;;;;;;;;;;11.59;41.90;101704.56;6238479;23;19911;-83